Time;durP1;ratioP1;P1;durP2;ratioP2;P2;SDS_P1;SDS_P2;PMS_P1;PMS_P2;Temp;Humidity;BMP_temperature;BMP_pressure;BME280_temperature;BME280_humidity;BME280_pressure;Samples;Min_cycle;Max_cycle;Signal;HPM_P1;HPM_P2
2022/01/08 00:01:29;;;;;;;6.73;3.90;;;4.90;99.90;;;;;;4992772;28;20196;-70
2022/01/08 00:03:54;;;;;;;6.03;4.70;;;4.90;99.90;;;;;;4992871;28;20187;-69
2022/01/08 00:06:20;;;;;;;7.33;3.90;;;4.90;99.90;;;;;;4992583;28;20262;-69
2022/01/08 00:08:46;;;;;;;5.83;4.53;;;5.00;99.90;;;;;;4992722;28;20199;-70
2022/01/08 00:11:17;;;;;;;5.40;4.60;;;5.00;99.90;;;;;;4992471;28;20176;-70
2022/01/08 00:13:42;;;;;;;6.03;4.33;;;5.00;99.90;;;;;;4992677;28;20493;-69
2022/01/08 00:16:08;;;;;;;6.37;4.13;;;5.10;99.90;;;;;;4992272;28;20458;-69
2022/01/08 00:18:33;;;;;;;5.87;4.20;;;5.10;99.90;;;;;;4992550;28;20285;-70
2022/01/08 00:21:00;;;;;;;5.97;4.40;;;5.20;99.90;;;;;;4992667;28;20172;-70
2022/01/08 00:23:25;;;;;;;5.37;4.17;;;5.20;99.90;;;;;;4992564;28;20190;-70
2022/01/08 00:25:51;;;;;;;5.10;4.50;;;5.30;99.90;;;;;;4992271;28;20430;-70
2022/01/08 00:28:16;;;;;;;5.07;4.53;;;5.30;99.90;;;;;;4992523;28;20215;-70
2022/01/08 00:30:42;;;;;;;10.63;4.60;;;5.30;99.90;;;;;;4991459;28;20180;-71
2022/01/08 00:33:08;;;;;;;7.67;4.47;;;5.30;99.90;;;;;;4991417;28;20175;-70
2022/01/08 00:35:34;;;;;;;8.07;6.10;;;5.40;99.90;;;;;;4990899;28;20454;-70
2022/01/08 00:38:00;;;;;;;7.70;5.20;;;5.40;99.90;;;;;;4990632;28;20195;-70
2022/01/08 00:40:26;;;;;;;5.10;4.40;;;5.40;99.90;;;;;;4995767;28;20408;-70
2022/01/08 00:42:52;;;;;;;4.80;4.10;;;5.40;99.90;;;;;;4997287;28;20441;-69
2022/01/08 00:45:17;;;;;;;6.90;4.40;;;5.40;99.90;;;;;;5020398;28;20183;-70
2022/01/08 00:47:43;;;;;;;6.43;4.17;;;5.40;99.90;;;;;;5019250;28;20684;-70
2022/01/08 00:50:12;;;;;;;5.67;4.57;;;5.30;99.90;;;;;;5013014;28;20184;-69
2022/01/08 00:52:41;;;;;;;5.50;4.73;;;5.40;99.90;;;;;;5012178;28;20180;-70
2022/01/08 00:55:08;;;;;;;5.00;4.40;;;5.30;99.90;;;;;;5015084;28;20555;-70
2022/01/08 00:57:34;;;;;;;5.40;4.40;;;5.40;99.90;;;;;;5012932;28;20458;-70
2022/01/08 01:00:00;;;;;;;15.90;5.00;;;5.40;99.90;;;;;;5012167;28;20457;-70
2022/01/08 01:02:26;;;;;;;7.70;5.10;;;5.30;99.90;;;;;;5011844;28;20803;-70
2022/01/08 01:04:51;;;;;;;5.70;5.10;;;5.30;99.90;;;;;;5011685;28;20176;-69
2022/01/08 01:07:17;;;;;;;5.90;4.73;;;5.30;99.90;;;;;;5011475;28;20202;-69
2022/01/08 01:09:43;;;;;;;5.70;4.60;;;5.30;99.90;;;;;;5011587;28;20184;-70
2022/01/08 01:12:08;;;;;;;6.90;4.33;;;5.20;99.90;;;;;;5011800;28;20442;-70
2022/01/08 01:14:34;;;;;;;9.63;5.80;;;5.20;99.90;;;;;;5011376;28;20184;-69
2022/01/08 01:16:59;;;;;;;5.50;4.77;;;5.10;99.90;;;;;;5011297;28;20175;-69
2022/01/08 01:19:25;;;;;;;6.43;5.13;;;5.10;99.90;;;;;;5011686;28;20203;-69
2022/01/08 01:21:53;;;;;;;8.47;4.80;;;5.10;99.90;;;;;;5011691;28;20206;-69
2022/01/08 01:24:22;;;;;;;9.50;5.13;;;5.10;99.90;;;;;;5011686;28;20194;-68
2022/01/08 01:48:15;;;;;;;8.10;5.43;;;5.10;99.90;;;;;;5011416;28;20212;-69
2022/01/08 01:50:41;;;;;;;6.10;5.33;;;5.00;99.90;;;;;;5011037;28;20501;-70
2022/01/08 01:53:06;;;;;;;7.40;5.87;;;4.90;99.90;;;;;;5012480;28;20258;-70
2022/01/08 01:55:32;;;;;;;6.87;5.53;;;4.70;99.90;;;;;;5014141;28;20733;-68
2022/01/08 01:58:00;;;;;;;6.73;5.77;;;4.70;99.90;;;;;;5043522;22;20213;-71
2022/01/08 02:00:25;;;;;;;13.10;6.97;;;4.60;99.90;;;;;;5068811;28;20179;-71
2022/01/08 02:02:51;;;;;;;8.03;6.17;;;4.60;99.90;;;;;;5074312;28;20412;-71
2022/01/08 02:05:17;;;;;;;9.77;6.40;;;4.70;99.90;;;;;;5074604;28;20180;-71
2022/01/08 02:07:42;;;;;;;7.70;6.17;;;4.70;99.90;;;;;;5073865;28;20174;-70
2022/01/08 02:10:08;;;;;;;6.60;6.00;;;4.60;99.90;;;;;;5074201;28;20215;-71
2022/01/08 02:12:34;;;;;;;7.37;6.30;;;4.60;99.90;;;;;;5074333;28;20217;-71
2022/01/08 02:15:00;;;;;;;8.83;6.80;;;4.50;99.90;;;;;;5074058;28;20952;-71
2022/01/08 02:17:25;;;;;;;7.40;6.37;;;4.50;99.90;;;;;;5073863;28;20165;-71
2022/01/08 02:19:55;;;;;;;9.40;6.70;;;4.60;99.90;;;;;;5073994;28;20193;-71
2022/01/08 02:22:21;;;;;;;9.67;6.83;;;4.50;99.90;;;;;;5074036;28;20326;-71
2022/01/08 02:24:48;;;;;;;10.37;7.20;;;4.60;99.90;;;;;;5073809;28;20890;-70
2022/01/08 02:27:15;;;;;;;8.60;7.00;;;4.60;99.90;;;;;;5073974;28;20411;-71
2022/01/08 02:29:40;;;;;;;8.53;7.03;;;4.60;99.90;;;;;;5073891;28;20438;-71
2022/01/08 02:32:09;;;;;;;7.73;6.33;;;4.60;99.90;;;;;;5073965;28;20773;-71
2022/01/08 02:34:37;;;;;;;9.43;6.73;;;4.70;99.90;;;;;;5074163;28;20174;-71
2022/01/08 02:37:04;;;;;;;12.10;7.90;;;4.70;99.90;;;;;;5073843;28;20924;-70
2022/01/08 02:39:38;;;;;;;9.47;8.13;;;4.70;99.90;;;;;;5073503;28;20484;-71
2022/01/08 02:42:04;;;;;;;8.73;7.83;;;4.70;99.90;;;;;;5073647;28;20417;-70
2022/01/08 02:44:30;;;;;;;12.07;8.57;;;4.80;99.90;;;;;;5062103;28;20461;-71
2022/01/08 02:46:56;;;;;;;10.73;9.03;;;4.90;99.90;;;;;;5062243;28;20971;-70
2022/01/08 02:49:23;;;;;;;11.30;8.80;;;4.90;99.90;;;;;;5065035;28;20208;-71
2022/01/08 02:51:49;;;;;;;9.17;8.13;;;4.90;99.90;;;;;;5073522;28;20173;-71
2022/01/08 02:54:14;;;;;;;9.53;8.47;;;4.90;99.90;;;;;;5073531;28;20408;-71
2022/01/08 02:56:42;;;;;;;14.60;10.77;;;5.00;99.90;;;;;;5073034;28;20231;-70
2022/01/08 02:59:08;;;;;;;13.10;9.10;;;5.00;99.90;;;;;;5073592;28;20216;-71
2022/01/08 03:01:34;;;;;;;14.47;10.30;;;5.00;99.90;;;;;;5073363;28;20445;-71
2022/01/08 03:04:00;;;;;;;11.53;9.33;;;4.90;99.90;;;;;;5072624;28;20408;-71
2022/01/08 03:06:26;;;;;;;12.57;9.73;;;4.90;99.90;;;;;;5072535;28;20412;-71
2022/01/08 03:08:51;;;;;;;14.70;10.20;;;4.80;99.90;;;;;;5073166;28;20809;-72
2022/01/08 03:11:17;;;;;;;14.37;10.80;;;4.80;99.90;;;;;;5073192;28;20204;-72
2022/01/08 03:13:43;;;;;;;14.17;10.37;;;4.80;99.90;;;;;;5073185;28;20617;-71
2022/01/08 03:16:08;;;;;;;14.73;11.43;;;4.80;99.90;;;;;;5072599;28;20677;-71
2022/01/08 03:18:36;;;;;;;15.47;11.83;;;4.70;99.90;;;;;;5072820;28;20224;-71
2022/01/08 03:21:11;;;;;;;13.13;10.87;;;4.80;99.90;;;;;;5072990;28;20633;-71
2022/01/08 03:23:43;;;;;;;12.00;10.17;;;4.80;99.90;;;;;;5072845;28;20452;-71
2022/01/08 03:26:10;;;;;;;16.00;12.30;;;4.80;99.90;;;;;;5072623;28;20438;-71
2022/01/08 03:28:36;;;;;;;17.90;13.70;;;4.90;99.90;;;;;;5072633;28;20509;-71
2022/01/08 03:31:01;;;;;;;18.07;13.07;;;4.90;99.90;;;;;;5072670;28;20408;-71
2022/01/08 03:33:27;;;;;;;23.53;14.10;;;4.90;99.90;;;;;;5072753;28;20958;-70
2022/01/08 03:35:53;;;;;;;18.77;13.93;;;4.90;99.90;;;;;;5072591;28;20522;-72
2022/01/08 03:38:19;;;;;;;18.37;13.70;;;4.70;99.90;;;;;;5072932;28;21196;-72
2022/01/08 03:40:44;;;;;;;22.17;14.17;;;4.70;99.90;;;;;;5072746;28;20223;-71
2022/01/08 03:43:10;;;;;;;16.30;14.17;;;4.60;99.90;;;;;;5072630;28;20189;-71
2022/01/08 03:45:35;;;;;;;20.67;13.87;;;4.40;99.90;;;;;;5072423;28;20228;-70
2022/01/08 03:48:19;;;;;;;21.87;14.40;;;4.20;99.90;;;;;;5072763;28;20591;-71
2022/01/08 03:50:46;;;;;;;18.23;14.73;;;4.10;99.90;;;;;;5072261;28;20164;-71
2022/01/08 03:53:12;;;;;;;20.27;14.23;;;4.20;99.90;;;;;;5054426;28;20468;-72
2022/01/08 03:55:37;;;;;;;20.43;15.47;;;4.30;99.90;;;;;;5072193;28;20454;-71
2022/01/08 03:58:03;;;;;;;19.33;14.50;;;4.10;99.90;;;;;;5072136;28;21013;-72
2022/01/08 04:00:30;;;;;;;20.30;15.07;;;4.20;99.90;;;;;;5072307;28;20209;-71
2022/01/08 04:02:55;;;;;;;21.90;14.73;;;4.20;99.90;;;;;;5072075;28;20191;-71
2022/01/08 04:05:21;;;;;;;21.23;16.30;;;4.30;99.90;;;;;;5071932;28;20870;-71
2022/01/08 04:07:47;;;;;;;19.33;14.77;;;4.20;99.90;;;;;;5075606;28;20176;-71
2022/01/08 04:10:12;;;;;;;21.70;15.43;;;4.30;99.90;;;;;;5077789;28;20173;-70
2022/01/08 04:12:45;;;;;;;19.83;14.67;;;4.40;99.90;;;;;;5075449;28;20211;-71
2022/01/08 04:15:33;;;;;;;22.43;14.63;;;4.40;99.90;;;;;;5073432;28;20690;-72
2022/01/08 04:17:59;;;;;;;21.40;15.40;;;4.50;99.90;;;;;;5073544;28;20745;-71
2022/01/08 04:20:25;;;;;;;22.63;16.73;;;4.50;99.90;;;;;;5074143;28;20433;-71
2022/01/08 04:22:51;;;;;;;20.90;14.90;;;4.30;99.90;;;;;;5073065;28;20184;-70
2022/01/08 04:25:20;;;;;;;17.63;14.43;;;4.20;99.90;;;;;;5072911;28;20485;-70
2022/01/08 04:27:46;;;;;;;23.10;17.00;;;4.30;99.90;;;;;;5072837;28;20585;-71
2022/01/08 04:30:12;;;;;;;19.77;15.63;;;4.20;99.90;;;;;;5070934;28;20509;-71
2022/01/08 04:32:37;;;;;;;26.30;18.10;;;4.10;99.90;;;;;;5053789;28;20499;-71
2022/01/08 04:35:04;;;;;;;20.30;15.77;;;4.20;99.90;;;;;;5060299;28;20748;-70
2022/01/08 04:37:29;;;;;;;29.17;18.70;;;4.20;99.90;;;;;;5031596;28;20243;-70
2022/01/08 04:39:55;;;;;;;22.80;16.90;;;4.30;99.90;;;;;;5031922;28;20428;-71
2022/01/08 04:42:21;;;;;;;24.60;17.07;;;4.30;99.90;;;;;;5031986;28;20168;-71
2022/01/08 04:44:46;;;;;;;24.13;17.80;;;4.40;99.90;;;;;;5031573;28;20178;-71
2022/01/08 04:47:12;;;;;;;23.90;18.27;;;4.40;99.90;;;;;;5031528;28;20540;-71
2022/01/08 04:49:37;;;;;;;25.97;18.80;;;4.50;99.90;;;;;;5031566;28;20191;-70
2022/01/08 04:52:03;;;;;;;23.77;17.90;;;4.40;99.90;;;;;;5031556;28;20174;-71
2022/01/08 04:54:29;;;;;;;25.53;18.87;;;4.50;99.90;;;;;;5031620;28;20178;-71
2022/01/08 04:56:54;;;;;;;28.60;18.53;;;4.40;99.90;;;;;;5031224;28;20460;-71
2022/01/08 04:59:20;;;;;;;25.10;19.20;;;4.50;99.90;;;;;;5031344;28;20229;-71
2022/01/08 05:01:46;;;;;;;23.63;19.40;;;4.50;99.90;;;;;;5031444;28;20198;-72
2022/01/08 05:04:12;;;;;;;23.40;18.67;;;4.50;99.90;;;;;;5031585;28;20210;-71
2022/01/08 05:06:37;;;;;;;22.27;18.07;;;4.40;99.90;;;;;;5030623;28;20674;-71
2022/01/08 05:09:03;;;;;;;26.10;17.77;;;4.40;99.90;;;;;;5031427;28;20701;-71
2022/01/08 05:11:29;;;;;;;24.63;17.67;;;4.50;99.90;;;;;;5031674;28;20177;-71
2022/01/08 05:13:55;;;;;;;28.47;18.27;;;4.50;99.90;;;;;;5031378;28;20935;-71
2022/01/08 05:16:22;;;;;;;23.73;16.90;;;4.50;99.90;;;;;;5030936;28;20671;-71
2022/01/08 05:18:51;;;;;;;23.10;17.80;;;4.50;99.90;;;;;;5031404;28;20483;-71
2022/01/08 05:21:23;;;;;;;24.73;18.10;;;4.50;99.90;;;;;;5031051;28;20443;-70
2022/01/08 05:23:49;;;;;;;28.63;17.87;;;4.50;99.90;;;;;;5031416;28;20393;-70
2022/01/08 05:26:15;;;;;;;29.60;20.47;;;4.50;99.90;;;;;;5031090;28;20536;-70
2022/01/08 05:28:41;;;;;;;24.70;18.73;;;4.40;99.90;;;;;;5033616;28;20203;-71
2022/01/08 05:31:07;;;;;;;23.87;19.43;;;4.40;99.90;;;;;;5035203;28;20204;-71
2022/01/08 05:33:33;;;;;;;25.30;19.63;;;4.40;99.90;;;;;;5035222;28;20474;-71
2022/01/08 05:35:58;;;;;;;26.40;19.63;;;4.40;99.90;;;;;;5034415;28;20458;-71
2022/01/08 05:38:24;;;;;;;24.73;19.20;;;4.30;99.90;;;;;;5033645;28;20186;-71
2022/01/08 05:40:49;;;;;;;24.43;17.83;;;4.20;99.90;;;;;;5034911;28;20716;-70
2022/01/08 05:43:15;;;;;;;22.60;18.10;;;4.10;99.90;;;;;;5034982;28;20174;-71
2022/01/08 05:45:41;;;;;;;26.53;18.47;;;4.20;99.90;;;;;;5034540;28;20682;-71
2022/01/08 05:48:07;;;;;;;24.33;18.83;;;4.20;99.90;;;;;;5034647;28;20193;-71
2022/01/08 05:50:32;;;;;;;24.80;18.50;;;4.20;99.90;;;;;;5034706;28;20607;-70
2022/01/08 05:52:58;;;;;;;26.40;17.87;;;4.30;99.90;;;;;;5034665;28;20416;-71
2022/01/08 05:55:23;;;;;;;27.13;19.57;;;4.30;99.90;;;;;;5034369;28;20198;-71
2022/01/08 05:57:49;;;;;;;31.40;18.73;;;4.20;99.90;;;;;;5033974;28;20169;-71
2022/01/08 06:00:15;;;;;;;23.43;19.60;;;4.20;99.90;;;;;;5034531;28;20194;-71
2022/01/08 06:02:40;;;;;;;24.90;17.77;;;4.30;99.90;;;;;;5056732;28;20591;-71
2022/01/08 06:05:07;;;;;;;22.73;18.73;;;4.20;99.90;;;;;;5063998;28;20180;-71
2022/01/08 06:07:33;;;;;;;27.37;19.10;;;4.10;99.90;;;;;;5073641;28;20183;-71
2022/01/08 06:09:59;;;;;;;22.50;18.30;;;4.20;99.90;;;;;;5074108;28;20428;-70
2022/01/08 06:12:25;;;;;;;22.90;17.73;;;4.20;99.90;;;;;;5074237;28;20429;-70
2022/01/08 06:14:50;;;;;;;26.83;19.00;;;4.10;99.90;;;;;;5056332;28;20247;-71
2022/01/08 06:17:16;;;;;;;25.07;18.10;;;4.00;99.90;;;;;;5074017;28;20255;-71
2022/01/08 06:19:41;;;;;;;27.00;18.70;;;4.00;99.90;;;;;;5074123;28;20561;-71
2022/01/08 06:22:07;;;;;;;28.60;18.40;;;3.90;99.90;;;;;;5073945;28;20652;-71
2022/01/08 06:24:33;;;;;;;24.37;18.33;;;4.00;99.90;;;;;;5074120;28;20585;-71
2022/01/08 06:26:58;;;;;;;30.37;18.90;;;4.10;99.90;;;;;;5073741;28;20173;-71
2022/01/08 06:29:24;;;;;;;25.60;18.97;;;4.10;99.90;;;;;;5073972;28;20226;-71
2022/01/08 06:31:50;;;;;;;25.67;18.13;;;4.20;99.90;;;;;;5057702;28;20180;-71
2022/01/08 06:34:15;;;;;;;29.17;18.77;;;4.20;99.90;;;;;;5065832;28;20185;-70
2022/01/08 06:36:41;;;;;;;24.80;17.37;;;4.20;99.90;;;;;;5066695;28;20645;-71
2022/01/08 06:39:06;;;;;;;30.07;18.90;;;4.10;99.90;;;;;;5073636;28;20196;-71
2022/01/08 06:41:32;;;;;;;25.63;17.20;;;4.00;99.90;;;;;;5073733;28;20215;-71
2022/01/08 06:43:57;;;;;;;26.50;17.47;;;4.10;99.90;;;;;;5068585;28;20185;-69
2022/01/08 06:46:24;;;;;;;27.67;17.80;;;4.00;99.90;;;;;;5052533;28;20198;-71
2022/01/08 06:48:49;;;;;;;25.47;18.90;;;4.00;99.90;;;;;;5066054;28;20221;-71
2022/01/08 06:51:15;;;;;;;23.30;17.93;;;4.00;99.90;;;;;;5071765;28;20426;-71
2022/01/08 06:53:40;;;;;;;24.23;18.43;;;4.00;99.90;;;;;;5073420;28;20184;-71
2022/01/08 06:56:06;;;;;;;24.10;18.27;;;4.00;99.90;;;;;;5056130;28;20207;-71
2022/01/08 06:58:32;;;;;;;26.70;18.33;;;3.90;99.90;;;;;;5052715;28;20306;-71
2022/01/08 07:00:58;;;;;;;23.03;17.80;;;3.90;99.90;;;;;;5053377;28;20166;-70
2022/01/08 07:03:23;;;;;;;27.73;17.80;;;3.90;99.90;;;;;;5053705;28;20407;-71
2022/01/08 07:05:49;;;;;;;27.80;18.60;;;4.00;99.90;;;;;;5053675;28;20184;-72
2022/01/08 07:08:15;;;;;;;24.40;16.37;;;3.90;99.90;;;;;;5053201;28;20193;-70
2022/01/08 07:10:41;;;;;;;21.00;15.50;;;3.80;99.90;;;;;;5053104;28;20180;-71
2022/01/08 07:13:06;;;;;;;24.20;17.67;;;3.90;99.90;;;;;;5053203;28;20260;-70
2022/01/08 07:15:32;;;;;;;23.93;17.67;;;4.00;99.90;;;;;;5052889;28;20545;-69
2022/01/08 07:17:57;;;;;;;22.70;16.40;;;4.00;99.90;;;;;;5059959;28;20203;-71
2022/01/08 07:20:24;;;;;;;20.77;15.60;;;4.00;99.90;;;;;;5063604;28;20316;-71
2022/01/08 07:22:49;;;;;;;23.23;16.93;;;4.00;99.90;;;;;;5072833;28;20567;-71
2022/01/08 07:25:16;;;;;;;24.20;17.83;;;4.00;99.90;;;;;;5072909;28;20458;-71
2022/01/08 07:27:41;;;;;;;24.30;16.43;;;4.10;99.90;;;;;;5072584;28;20166;-71
2022/01/08 07:30:08;;;;;;;24.27;16.70;;;4.10;99.90;;;;;;5073067;28;20412;-69
2022/01/08 07:32:42;;;;;;;25.33;18.07;;;4.20;99.90;;;;;;5073435;28;20547;-70
2022/01/08 07:35:08;;;;;;;22.60;16.43;;;4.10;99.90;;;;;;5073851;28;20451;-70
2022/01/08 07:37:33;;;;;;;28.73;16.70;;;4.20;99.90;;;;;;5072385;28;20418;-70
2022/01/08 07:39:59;;;;;;;23.10;17.00;;;4.10;99.90;;;;;;5073338;28;20433;-71
2022/01/08 07:42:24;;;;;;;24.50;16.03;;;4.00;99.90;;;;;;5073827;28;20171;-71
2022/01/08 07:44:50;;;;;;;27.80;16.80;;;4.00;99.90;;;;;;5073365;28;20171;-71
2022/01/08 07:47:15;;;;;;;19.33;14.90;;;4.00;99.90;;;;;;5072976;28;20539;-69
2022/01/08 07:49:41;;;;;;;20.57;15.47;;;4.00;99.90;;;;;;5073348;28;20199;-71
2022/01/08 07:52:06;;;;;;;19.00;14.67;;;4.10;99.90;;;;;;5071816;28;20256;-69
2022/01/08 07:54:32;;;;;;;23.07;16.20;;;4.00;99.90;;;;;;5072402;28;20180;-70
2022/01/08 07:56:57;;;;;;;22.37;16.40;;;4.10;99.90;;;;;;5072044;28;20608;-70
2022/01/08 07:59:23;;;;;;;29.40;17.90;;;4.10;99.90;;;;;;5072170;28;20203;-72
2022/01/08 08:01:48;;;;;;;23.60;15.90;;;4.20;99.90;;;;;;5072087;28;20251;-72
2022/01/08 08:04:14;;;;;;;23.70;18.13;;;4.10;99.90;;;;;;5072175;28;20268;-72
2022/01/08 08:06:44;;;;;;;22.37;15.00;;;4.20;99.90;;;;;;5063748;28;20185;-75
2022/01/08 08:09:10;;;;;;;27.47;17.80;;;4.20;99.90;;;;;;5022846;28;20236;-73
2022/01/08 08:11:35;;;;;;;24.00;16.53;;;4.20;99.90;;;;;;5046863;28;20869;-74
2022/01/08 08:14:01;;;;;;;30.87;16.77;;;4.30;99.90;;;;;;5053318;28;20582;-74
2022/01/08 08:16:27;;;;;;;20.93;15.13;;;4.30;99.90;;;;;;5058464;28;20202;-74
2022/01/08 08:18:52;;;;;;;22.80;15.50;;;4.20;99.90;;;;;;5055245;28;20271;-74
2022/01/08 08:21:18;;;;;;;22.57;16.10;;;4.10;99.90;;;;;;5062547;28;20231;-74
2022/01/08 08:23:43;;;;;;;24.10;15.27;;;4.10;99.90;;;;;;5032252;28;20233;-74
2022/01/08 08:26:09;;;;;;;28.70;17.40;;;4.10;99.90;;;;;;5028381;28;20200;-73
2022/01/08 08:28:34;;;;;;;25.70;17.20;;;4.10;99.90;;;;;;5045345;28;20901;-74
2022/01/08 08:31:00;;;;;;;26.83;15.23;;;4.20;99.90;;;;;;5049483;28;20189;-73
2022/01/08 08:33:25;;;;;;;29.67;17.30;;;4.20;99.90;;;;;;5049314;28;20177;-73
2022/01/08 08:35:51;;;;;;;23.13;15.17;;;4.10;99.90;;;;;;5048967;28;20292;-74
2022/01/08 08:38:16;;;;;;;23.70;15.67;;;4.20;99.90;;;;;;5047844;28;20193;-75
2022/01/08 08:40:42;;;;;;;29.00;17.57;;;4.20;99.90;;;;;;5048809;28;20258;-75
2022/01/08 08:43:08;;;;;;;29.17;16.50;;;4.20;99.90;;;;;;5048926;28;20196;-74
2022/01/08 08:45:34;;;;;;;24.10;16.00;;;4.20;99.90;;;;;;5048254;28;20189;-74
2022/01/08 08:48:00;;;;;;;27.37;17.30;;;4.20;99.90;;;;;;5048201;28;20506;-73
2022/01/08 08:50:25;;;;;;;24.43;16.73;;;4.30;99.90;;;;;;5047603;28;20185;-72
2022/01/08 08:52:53;;;;;;;26.23;15.47;;;4.40;99.90;;;;;;5049613;28;20227;-72
2022/01/08 08:55:19;;;;;;;20.50;15.80;;;4.40;99.90;;;;;;5049230;28;20244;-73
2022/01/08 08:57:45;;;;;;;20.40;14.97;;;4.30;99.90;;;;;;5048387;28;20433;-74
2022/01/08 09:00:11;;;;;;;21.17;15.10;;;4.30;99.90;;;;;;5048715;28;20277;-73
2022/01/08 09:02:37;;;;;;;27.27;16.03;;;4.30;99.90;;;;;;5049444;28;20411;-74
2022/01/08 09:05:04;;;;;;;28.27;16.67;;;4.40;99.90;;;;;;5052642;28;20472;-74
2022/01/08 09:07:30;;;;;;;28.37;17.27;;;4.40;99.90;;;;;;5051324;28;20426;-74
2022/01/08 09:09:56;;;;;;;24.43;16.40;;;4.40;99.90;;;;;;5061721;28;20940;-73
2022/01/08 09:12:21;;;;;;;23.23;16.13;;;4.40;99.90;;;;;;5063621;28;20182;-73
2022/01/08 09:14:47;;;;;;;22.87;15.37;;;4.50;99.90;;;;;;5073162;28;20219;-73
2022/01/08 09:17:14;;;;;;;25.83;17.47;;;4.60;99.90;;;;;;5071851;28;20211;-73
2022/01/08 09:19:40;;;;;;;29.77;16.30;;;4.40;99.90;;;;;;5072582;28;20204;-73
2022/01/08 09:22:07;;;;;;;24.50;16.73;;;4.40;99.90;;;;;;5072611;28;20940;-74
2022/01/08 09:24:34;;;;;;;20.83;15.00;;;4.40;99.90;;;;;;5072205;28;20414;-74
2022/01/08 09:26:59;;;;;;;24.83;15.50;;;4.50;99.90;;;;;;5070113;28;20490;-75
2022/01/08 09:29:25;;;;;;;21.93;15.27;;;4.40;99.90;;;;;;5055225;28;20431;-73
2022/01/08 09:31:51;;;;;;;26.13;17.67;;;4.50;99.90;;;;;;5051644;28;20200;-73
2022/01/08 09:34:19;;;;;;;20.87;15.07;;;4.50;99.90;;;;;;5061527;28;20182;-74
2022/01/08 09:36:45;;;;;;;30.33;17.10;;;4.60;99.90;;;;;;5070970;28;20461;-74
2022/01/08 09:39:10;;;;;;;24.90;17.40;;;4.60;99.90;;;;;;5071417;28;20838;-74
2022/01/08 09:41:36;;;;;;;26.60;16.53;;;4.50;99.90;;;;;;5063364;28;20181;-74
2022/01/08 09:44:02;;;;;;;25.50;17.23;;;4.50;99.90;;;;;;5044421;28;20189;-74
2022/01/08 09:46:27;;;;;;;25.97;15.87;;;4.50;99.90;;;;;;5059894;28;20179;-73
2022/01/08 09:48:53;;;;;;;27.77;15.57;;;4.50;99.90;;;;;;5066203;28;20538;-74
2022/01/08 09:51:19;;;;;;;25.77;16.70;;;4.40;99.90;;;;;;5057538;28;20792;-73
2022/01/08 09:53:45;;;;;;;29.07;15.93;;;4.40;99.90;;;;;;5048166;28;20213;-75
2022/01/08 09:56:11;;;;;;;26.70;14.87;;;4.50;99.90;;;;;;5060566;28;21105;-75
2022/01/08 09:58:37;;;;;;;20.73;13.87;;;4.50;99.90;;;;;;5063836;28;20450;-74
2022/01/08 10:01:20;;;;;;;26.43;14.80;;;4.50;99.90;;;;;;5060373;28;20431;-74
2022/01/08 10:03:45;;;;;;;23.77;14.30;;;4.60;99.90;;;;;;5048501;28;20190;-74
2022/01/08 10:06:11;;;;;;;27.30;14.80;;;4.50;99.90;;;;;;5052699;28;20796;-74
2022/01/08 10:08:40;;;;;;;25.10;13.73;;;4.60;99.90;;;;;;5050234;28;20214;-74
2022/01/08 10:11:07;;;;;;;20.43;13.43;;;4.60;99.90;;;;;;5055104;28;20192;-76
2022/01/08 10:13:39;;;;;;;23.73;14.00;;;4.70;99.90;;;;;;5061671;28;20420;-73
2022/01/08 10:18:54;;;;;;;17.10;12.90;;;4.60;99.90;;;;;;5058504;28;20484;-74
2022/01/08 10:21:23;;;;;;;24.73;14.67;;;4.70;99.90;;;;;;5061219;28;20462;-73
2022/01/08 10:23:51;;;;;;;23.50;14.53;;;4.80;99.90;;;;;;5070892;28;20174;-73
2022/01/08 10:26:19;;;;;;;19.93;11.90;;;4.90;99.90;;;;;;5056782;28;20869;-73
2022/01/08 10:28:52;;;;;;;20.30;12.40;;;5.10;99.90;;;;;;5053617;28;20459;-73
2022/01/08 10:31:26;;;;;;;22.07;12.47;;;5.10;99.90;;;;;;5046686;28;20503;-73
2022/01/08 10:33:53;;;;;;;19.37;12.07;;;5.00;99.90;;;;;;5050150;28;20477;-73
2022/01/08 10:36:33;;;;;;;19.10;13.40;;;5.00;99.90;;;;;;5057098;28;20976;-73
2022/01/08 10:39:05;;;;;;;21.80;11.57;;;5.10;99.90;;;;;;5050930;28;20502;-73
2022/01/08 10:41:31;;;;;;;23.60;12.90;;;5.10;99.90;;;;;;5057411;28;20416;-72
2022/01/08 10:44:09;;;;;;;21.43;12.53;;;5.10;99.90;;;;;;5066413;28;20993;-73
2022/01/08 10:46:35;;;;;;;15.10;11.10;;;5.10;99.90;;;;;;5030959;28;21019;-73
2022/01/08 10:49:01;;;;;;;20.80;10.87;;;5.10;99.90;;;;;;5049840;28;21246;-73
2022/01/08 10:51:32;;;;;;;12.80;9.10;;;5.10;99.90;;;;;;5050128;28;20478;-73
2022/01/08 10:53:59;;;;;;;12.70;9.20;;;5.00;99.90;;;;;;5050404;28;20182;-74
2022/01/08 10:56:28;;;;;;;12.97;8.80;;;5.10;99.90;;;;;;5049631;28;20463;-74
2022/01/08 10:59:07;;;;;;;12.93;7.60;;;4.90;99.90;;;;;;5049649;28;20487;-74
2022/01/08 11:01:48;;;;;;;12.37;8.47;;;5.00;99.90;;;;;;5049791;28;20412;-73
2022/01/08 11:04:17;;;;;;;13.27;7.80;;;5.00;99.90;;;;;;5048595;28;20429;-73
2022/01/08 11:06:54;;;;;;;14.10;7.53;;;5.00;99.90;;;;;;5029423;28;20476;-73
2022/01/08 11:09:20;;;;;;;11.23;7.90;;;5.10;99.90;;;;;;5029555;28;20437;-74
2022/01/08 11:11:47;;;;;;;14.57;8.13;;;5.20;99.90;;;;;;5043473;28;20451;-73
2022/01/08 11:14:45;;;;;;;11.27;7.20;;;5.20;99.90;;;;;;5054247;28;20425;-73
2022/01/08 11:17:15;;;;;;;7.57;6.50;;;5.20;99.90;;;;;;5055424;28;20521;-73
2022/01/08 11:19:44;;;;;;;8.00;6.90;;;5.30;99.90;;;;;;5031349;28;20488;-74
2022/01/08 11:22:13;;;;;;;13.10;7.60;;;5.40;99.90;;;;;;5049525;28;20440;-72
2022/01/08 11:24:48;;;;;;;10.90;6.90;;;5.50;99.90;;;;;;5049365;28;20475;-73
2022/01/08 11:27:15;;;;;;;11.17;6.80;;;5.50;99.90;;;;;;5030433;28;20424;-73
2022/01/08 11:29:43;;;;;;;8.70;6.57;;;5.50;99.90;;;;;;5048841;28;20502;-73
2022/01/08 11:32:09;;;;;;;14.63;7.57;;;5.50;99.90;;;;;;5049028;28;20442;-73
2022/01/08 11:34:38;;;;;;;11.70;6.73;;;5.50;99.90;;;;;;5049074;28;20481;-73
2022/01/08 11:37:04;;;;;;;10.30;6.00;;;5.50;99.90;;;;;;5048140;28;20806;-73
2022/01/08 11:39:30;;;;;;;6.07;5.37;;;5.50;99.90;;;;;;5050015;28;20443;-73
2022/01/08 11:41:56;;;;;;;10.03;5.60;;;5.50;99.90;;;;;;5063554;28;20461;-72
2022/01/08 11:44:23;;;;;;;12.40;5.70;;;5.50;99.90;;;;;;5062043;28;20936;-73
2022/01/08 11:46:50;;;;;;;8.20;5.40;;;5.50;99.90;;;;;;5070107;28;21264;-73
2022/01/08 11:49:17;;;;;;;7.43;4.57;;;5.40;99.90;;;;;;5069225;28;20486;-73
2022/01/08 11:51:43;;;;;;;7.40;5.90;;;5.40;99.90;;;;;;5069029;28;20477;-73
2022/01/08 11:54:08;;;;;;;10.30;5.50;;;5.40;99.90;;;;;;5069085;28;20411;-73
2022/01/08 11:56:37;;;;;;;6.10;4.63;;;5.50;99.90;;;;;;5068066;28;20645;-73
2022/01/08 11:59:12;;;;;;;6.67;4.87;;;5.40;99.90;;;;;;5068673;28;20201;-73
2022/01/08 12:01:40;;;;;;;9.27;4.00;;;5.40;99.90;;;;;;5069093;28;20403;-73
2022/01/08 12:04:06;;;;;;;5.27;4.50;;;5.50;99.90;;;;;;5069149;28;20439;-73
2022/01/08 12:06:36;;;;;;;11.80;5.70;;;5.50;99.90;;;;;;5068536;28;20448;-73
2022/01/08 12:09:10;;;;;;;7.10;4.07;;;5.50;99.90;;;;;;5068453;28;20517;-73
2022/01/08 12:11:41;;;;;;;7.40;4.73;;;5.60;99.90;;;;;;5058392;28;20462;-73
2022/01/08 12:14:09;;;;;;;5.97;4.20;;;5.50;99.90;;;;;;5070251;28;20407;-72
2022/01/08 12:16:37;;;;;;;6.83;4.77;;;5.60;99.90;;;;;;5037117;28;20491;-72
2022/01/08 12:19:05;;;;;;;5.87;4.97;;;5.70;99.90;;;;;;5030548;28;20483;-72
2022/01/08 12:21:35;;;;;;;6.17;4.57;;;5.70;99.90;;;;;;5057163;28;20450;-71
2022/01/08 12:24:25;;;;;;;6.20;4.60;;;5.70;99.90;;;;;;5061397;28;20535;-73
2022/01/08 12:26:51;;;;;;;7.93;4.67;;;5.70;99.90;;;;;;5070281;28;20411;-71
2022/01/08 12:29:36;;;;;;;6.23;4.70;;;5.80;99.90;;;;;;5071572;28;20427;-71
2022/01/08 12:32:21;;;;;;;13.23;4.37;;;5.80;99.90;;;;;;5053866;28;20423;-71
2022/01/08 12:34:49;;;;;;;5.67;4.13;;;5.80;99.90;;;;;;5072174;28;20426;-71
2022/01/08 12:37:16;;;;;;;6.13;4.30;;;5.80;99.90;;;;;;5071556;28;20526;-72
2022/01/08 12:39:42;;;;;;;7.27;4.87;;;5.80;99.90;;;;;;5071657;28;20424;-72
2022/01/08 12:42:20;;;;;;;7.47;3.80;;;5.80;99.90;;;;;;5068965;28;20411;-72
2022/01/08 12:45:04;;;;;;;4.83;4.17;;;5.80;99.90;;;;;;5050777;28;20561;-72
2022/01/08 12:47:49;;;;;;;5.57;3.70;;;5.80;99.90;;;;;;5043964;28;20761;-72
2022/01/08 12:50:39;;;;;;;5.53;4.23;;;5.80;99.90;;;;;;5051966;28;20397;-73
2022/01/08 12:53:08;;;;;;;5.07;3.90;;;5.80;99.90;;;;;;5032259;28;20395;-73
2022/01/08 12:56:05;;;;;;;5.70;4.20;;;5.70;99.90;;;;;;5014011;28;21071;-71
2022/01/08 12:58:44;;;;;;;7.40;3.93;;;5.80;99.90;;;;;;5031833;28;20449;-72
2022/01/08 13:01:19;;;;;;;7.00;5.00;;;5.90;99.90;;;;;;5049890;28;20444;-72
2022/01/08 13:03:51;;;;;;;5.53;4.63;;;5.90;99.90;;;;;;5052003;28;20449;-72
2022/01/08 13:06:17;;;;;;;5.20;3.43;;;6.00;99.90;;;;;;5045219;28;20401;-71
2022/01/08 13:08:45;;;;;;;4.87;4.17;;;6.00;99.90;;;;;;5034619;28;20468;-72